sensor_id;sensor_type;location;lat;lon;timestamp;pressure;altitude;pressure_sealevel;temperature;humidity
78411;BME280;67706;51.074;-1.796;2023-07-31T00:01:41;100470.13;;;16.51;100.00
78411;BME280;67706;51.074;-1.796;2023-07-31T00:04:10;100470.56;;;16.48;100.00
78411;BME280;67706;51.074;-1.796;2023-07-31T00:06:36;100464.00;;;16.49;100.00
78411;BME280;67706;51.074;-1.796;2023-07-31T00:09:03;100459.50;;;16.48;100.00
78411;BME280;67706;51.074;-1.796;2023-07-31T00:11:30;100461.09;;;16.56;100.00
78411;BME280;67706;51.074;-1.796;2023-07-31T00:13:56;100462.75;;;16.57;100.00
78411;BME280;67706;51.074;-1.796;2023-07-31T00:16:23;100465.53;;;16.57;100.00
78411;BME280;67706;51.074;-1.796;2023-07-31T00:18:50;100453.38;;;16.58;100.00
78411;BME280;67706;51.074;-1.796;2023-07-31T00:21:18;100452.03;;;16.60;100.00
78411;BME280;67706;51.074;-1.796;2023-07-31T00:23:44;100457.00;;;16.58;100.00
78411;BME280;67706;51.074;-1.796;2023-07-31T00:26:11;100439.53;;;16.58;100.00
78411;BME280;67706;51.074;-1.796;2023-07-31T00:28:38;100447.84;;;16.58;100.00
78411;BME280;67706;51.074;-1.796;2023-07-31T00:31:05;100446.66;;;16.54;100.00
78411;BME280;67706;51.074;-1.796;2023-07-31T00:33:31;100443.16;;;16.58;100.00
78411;BME280;67706;51.074;-1.796;2023-07-31T00:35:58;100431.34;;;16.63;100.00
78411;BME280;67706;51.074;-1.796;2023-07-31T00:38:26;100432.41;;;16.62;100.00
78411;BME280;67706;51.074;-1.796;2023-07-31T00:40:53;100428.56;;;16.63;100.00
78411;BME280;67706;51.074;-1.796;2023-07-31T00:43:19;100421.06;;;16.63;100.00
78411;BME280;67706;51.074;-1.796;2023-07-31T00:45:46;100426.38;;;16.65;100.00
78411;BME280;67706;51.074;-1.796;2023-07-31T00:48:13;100421.66;;;16.65;100.00
78411;BME280;67706;51.074;-1.796;2023-07-31T00:50:39;100424.81;;;16.69;100.00
78411;BME280;67706;51.074;-1.796;2023-07-31T00:53:06;100422.84;;;16.69;100.00
78411;BME280;67706;51.074;-1.796;2023-07-31T00:55:34;100410.09;;;16.68;100.00
78411;BME280;67706;51.074;-1.796;2023-07-31T00:58:01;100408.78;;;16.71;100.00
78411;BME280;67706;51.074;-1.796;2023-07-31T01:00:28;100394.19;;;16.76;100.00
78411;BME280;67706;51.074;-1.796;2023-07-31T01:02:55;100407.78;;;16.77;100.00
78411;BME280;67706;51.074;-1.796;2023-07-31T01:05:28;100405.25;;;16.76;100.00
78411;BME280;67706;51.074;-1.796;2023-07-31T01:08:04;100399.19;;;16.79;100.00
78411;BME280;67706;51.074;-1.796;2023-07-31T01:10:41;100389.81;;;16.80;100.00
78411;BME280;67706;51.074;-1.796;2023-07-31T01:13:13;100392.22;;;16.76;100.00
78411;BME280;67706;51.074;-1.796;2023-07-31T01:15:40;100377.88;;;16.79;100.00
78411;BME280;67706;51.074;-1.796;2023-07-31T01:18:06;100377.56;;;16.76;100.00
78411;BME280;67706;51.074;-1.796;2023-07-31T01:20:34;100368.03;;;16.72;100.00
78411;BME280;67706;51.074;-1.796;2023-07-31T01:23:34;100375.38;;;16.78;100.00
78411;BME280;67706;51.074;-1.796;2023-07-31T01:26:11;100368.28;;;16.70;100.00
78411;BME280;67706;51.074;-1.796;2023-07-31T01:28:46;100357.91;;;16.77;100.00
78411;BME280;67706;51.074;-1.796;2023-07-31T01:31:20;100349.09;;;16.80;100.00
78411;BME280;67706;51.074;-1.796;2023-07-31T01:33:50;100360.41;;;16.79;100.00
78411;BME280;67706;51.074;-1.796;2023-07-31T01:36:17;100349.94;;;16.81;100.00
78411;BME280;67706;51.074;-1.796;2023-07-31T01:38:44;100343.69;;;16.74;100.00
78411;BME280;67706;51.074;-1.796;2023-07-31T01:41:12;100362.44;;;16.83;100.00
78411;BME280;67706;51.074;-1.796;2023-07-31T01:43:39;100351.53;;;16.77;100.00
78411;BME280;67706;51.074;-1.796;2023-07-31T01:46:05;100345.25;;;16.81;100.00
78411;BME280;67706;51.074;-1.796;2023-07-31T01:48:32;100353.03;;;16.84;100.00
78411;BME280;67706;51.074;-1.796;2023-07-31T01:51:02;100356.38;;;16.86;100.00
78411;BME280;67706;51.074;-1.796;2023-07-31T01:53:29;100345.25;;;16.81;100.00
78411;BME280;67706;51.074;-1.796;2023-07-31T01:55:56;100331.88;;;16.78;100.00
78411;BME280;67706;51.074;-1.796;2023-07-31T01:58:24;100330.22;;;16.77;100.00
78411;BME280;67706;51.074;-1.796;2023-07-31T02:00:51;100331.88;;;16.78;100.00
78411;BME280;67706;51.074;-1.796;2023-07-31T02:03:17;100325.75;;;16.76;100.00
78411;BME280;67706;51.074;-1.796;2023-07-31T02:05:44;100319.78;;;16.84;100.00
78411;BME280;67706;51.074;-1.796;2023-07-31T02:08:11;100323.13;;;16.86;100.00
78411;BME280;67706;51.074;-1.796;2023-07-31T02:10:38;100315.09;;;16.85;100.00
78411;BME280;67706;51.074;-1.796;2023-07-31T02:13:05;100314.34;;;16.89;100.00
78411;BME280;67706;51.074;-1.796;2023-07-31T02:15:33;100315.19;;;16.90;100.00
78411;BME280;67706;51.074;-1.796;2023-07-31T02:17:59;100301.91;;;16.92;100.00
78411;BME280;67706;51.074;-1.796;2023-07-31T02:20:26;100299.41;;;16.90;100.00
78411;BME280;67706;51.074;-1.796;2023-07-31T02:22:53;100299.47;;;16.95;100.00
78411;BME280;67706;51.074;-1.796;2023-07-31T02:25:19;100309.47;;;16.96;100.00
78411;BME280;67706;51.074;-1.796;2023-07-31T02:27:46;100298.41;;;16.96;100.00
78411;BME280;67706;51.074;-1.796;2023-07-31T02:30:13;100290.56;;;16.93;100.00
78411;BME280;67706;51.074;-1.796;2023-07-31T02:32:41;100292.91;;;17.01;100.00
78411;BME280;67706;51.074;-1.796;2023-07-31T02:35:08;100281.84;;;17.01;100.00
78411;BME280;67706;51.074;-1.796;2023-07-31T02:37:34;100287.38;;;17.01;100.00
78411;BME280;67706;51.074;-1.796;2023-07-31T02:40:01;100282.41;;;17.03;100.00
78411;BME280;67706;51.074;-1.796;2023-07-31T02:42:28;100281.03;;;17.01;100.00
78411;BME280;67706;51.074;-1.796;2023-07-31T02:44:54;100285.72;;;17.00;100.00
78411;BME280;67706;51.074;-1.796;2023-07-31T02:47:21;100282.34;;;16.98;100.00
78411;BME280;67706;51.074;-1.796;2023-07-31T02:49:50;100277.41;;;17.00;100.00
78411;BME280;67706;51.074;-1.796;2023-07-31T02:52:16;100268.56;;;17.03;100.00
78411;BME280;67706;51.074;-1.796;2023-07-31T02:54:43;100262.19;;;17.03;100.00
78411;BME280;67706;51.074;-1.796;2023-07-31T02:57:10;100260.25;;;17.03;100.00
78411;BME280;67706;51.074;-1.796;2023-07-31T02:59:37;100263.69;;;17.10;100.00
78411;BME280;67706;51.074;-1.796;2023-07-31T03:02:03;100255.81;;;17.02;100.00
78411;BME280;67706;51.074;-1.796;2023-07-31T03:04:30;100244.16;;;17.00;100.00
78411;BME280;67706;51.074;-1.796;2023-07-31T03:06:58;100263.38;;;17.07;100.00
78411;BME280;67706;51.074;-1.796;2023-07-31T03:09:25;100254.78;;;17.08;100.00
78411;BME280;67706;51.074;-1.796;2023-07-31T03:11:54;100254.69;;;17.03;100.00
78411;BME280;67706;51.074;-1.796;2023-07-31T03:14:21;100257.56;;;17.08;100.00
78411;BME280;67706;51.074;-1.796;2023-07-31T03:16:47;100262.53;;;17.06;100.00
78411;BME280;67706;51.074;-1.796;2023-07-31T03:19:14;100261.69;;;17.06;100.00
78411;BME280;67706;51.074;-1.796;2023-07-31T03:21:41;100257.81;;;17.07;100.00
78411;BME280;67706;51.074;-1.796;2023-07-31T03:24:09;100255.88;;;17.07;100.00
78411;BME280;67706;51.074;-1.796;2023-07-31T03:26:37;100264.00;;;17.14;100.00
78411;BME280;67706;51.074;-1.796;2023-07-31T03:29:06;100254.78;;;17.08;100.00
78411;BME280;67706;51.074;-1.796;2023-07-31T03:31:33;100248.72;;;17.11;100.00
78411;BME280;67706;51.074;-1.796;2023-07-31T03:34:00;100245.38;;;17.09;100.00
78411;BME280;67706;51.074;-1.796;2023-07-31T03:36:26;100239.59;;;17.11;100.00
78411;BME280;67706;51.074;-1.796;2023-07-31T03:38:53;100231.00;;;17.12;100.00
78411;BME280;67706;51.074;-1.796;2023-07-31T03:41:21;100233.66;;;17.02;100.00
78411;BME280;67706;51.074;-1.796;2023-07-31T03:43:50;100228.75;;;17.09;100.00
78411;BME280;67706;51.074;-1.796;2023-07-31T03:46:17;100228.69;;;17.04;100.00
78411;BME280;67706;51.074;-1.796;2023-07-31T03:48:44;100240.25;;;17.01;100.00
78411;BME280;67706;51.074;-1.796;2023-07-31T03:51:11;100234.50;;;17.03;100.00
78411;BME280;67706;51.074;-1.796;2023-07-31T03:53:37;100229.19;;;17.01;100.00
78411;BME280;67706;51.074;-1.796;2023-07-31T03:56:04;100235.41;;;17.08;100.00
78411;BME280;67706;51.074;-1.796;2023-07-31T03:58:32;100235.47;;;17.13;100.00
78411;BME280;67706;51.074;-1.796;2023-07-31T04:01:00;100230.34;;;17.05;100.00
78411;BME280;67706;51.074;-1.796;2023-07-31T04:03:27;100239.34;;;17.12;100.00
78411;BME280;67706;51.074;-1.796;2023-07-31T04:05:54;100232.09;;;17.11;100.00
78411;BME280;67706;51.074;-1.796;2023-07-31T04:08:21;100225.91;;;17.04;100.00
78411;BME280;67706;51.074;-1.796;2023-07-31T04:10:48;100222.97;;;17.11;100.00
78411;BME280;67706;51.074;-1.796;2023-07-31T04:13:15;100231.34;;;17.16;100.00
78411;BME280;67706;51.074;-1.796;2023-07-31T04:15:48;100226.31;;;17.13;100.00
78411;BME280;67706;51.074;-1.796;2023-07-31T04:18:15;100215.31;;;17.01;100.00
78411;BME280;67706;51.074;-1.796;2023-07-31T04:20:41;100219.94;;;17.12;100.00
78411;BME280;67706;51.074;-1.796;2023-07-31T04:23:08;100217.16;;;17.12;100.00
78411;BME280;67706;51.074;-1.796;2023-07-31T04:25:35;100223.19;;;17.09;100.00
78411;BME280;67706;51.074;-1.796;2023-07-31T04:28:02;100217.16;;;17.12;100.00
78411;BME280;67706;51.074;-1.796;2023-07-31T04:30:28;100218.19;;;17.06;100.00
78411;BME280;67706;51.074;-1.796;2023-07-31T04:32:56;100221.00;;;17.11;100.00
78411;BME280;67706;51.074;-1.796;2023-07-31T04:35:23;100228.50;;;17.11;100.00
78411;BME280;67706;51.074;-1.796;2023-07-31T04:37:50;100227.16;;;17.13;100.00
78411;BME280;67706;51.074;-1.796;2023-07-31T04:40:16;100224.63;;;17.12;100.00
78411;BME280;67706;51.074;-1.796;2023-07-31T04:42:43;100229.00;;;17.08;100.00
78411;BME280;67706;51.074;-1.796;2023-07-31T04:45:10;100222.22;;;17.15;100.00
78411;BME280;67706;51.074;-1.796;2023-07-31T04:47:36;100224.41;;;17.13;100.00
78411;BME280;67706;51.074;-1.796;2023-07-31T04:50:05;100216.31;;;17.12;100.00
78411;BME280;67706;51.074;-1.796;2023-07-31T04:52:32;100214.31;;;17.07;100.00
78411;BME280;67706;51.074;-1.796;2023-07-31T04:54:59;100209.69;;;17.13;100.00
78411;BME280;67706;51.074;-1.796;2023-07-31T04:57:26;100206.06;;;17.12;100.00
78411;BME280;67706;51.074;-1.796;2023-07-31T04:59:52;100218.00;;;17.13;100.00
78411;BME280;67706;51.074;-1.796;2023-07-31T05:02:19;100220.00;;;17.17;100.00
78411;BME280;67706;51.074;-1.796;2023-07-31T05:04:46;100214.38;;;17.12;100.00
78411;BME280;67706;51.074;-1.796;2023-07-31T05:07:14;100211.69;;;17.17;100.00
78411;BME280;67706;51.074;-1.796;2023-07-31T05:09:42;100216.56;;;17.10;100.00
78411;BME280;67706;51.074;-1.796;2023-07-31T05:12:08;100214.13;;;17.14;100.00
78411;BME280;67706;51.074;-1.796;2023-07-31T05:14:35;100205.88;;;17.19;100.00
78411;BME280;67706;51.074;-1.796;2023-07-31T05:17:02;100202.28;;;17.18;100.00
78411;BME280;67706;51.074;-1.796;2023-07-31T05:19:29;100205.63;;;17.20;100.00
78411;BME280;67706;51.074;-1.796;2023-07-31T05:21:55;100203.69;;;17.21;100.00
78411;BME280;67706;51.074;-1.796;2023-07-31T05:24:23;100203.69;;;17.21;100.00
78411;BME280;67706;51.074;-1.796;2023-07-31T05:26:50;100203.44;;;17.22;100.00
78411;BME280;67706;51.074;-1.796;2023-07-31T05:29:17;100194.09;;;17.28;100.00
78411;BME280;67706;51.074;-1.796;2023-07-31T05:31:43;100199.63;;;17.28;100.00
78411;BME280;67706;51.074;-1.796;2023-07-31T05:34:10;100190.34;;;17.39;100.00
78411;BME280;67706;51.074;-1.796;2023-07-31T05:36:36;100186.50;;;17.40;100.00
78411;BME280;67706;51.074;-1.796;2023-07-31T05:39:03;100194.28;;;17.43;100.00
78411;BME280;67706;51.074;-1.796;2023-07-31T05:41:35;100188.81;;;17.48;100.00
78411;BME280;67706;51.074;-1.796;2023-07-31T05:44:02;100187.66;;;17.44;100.00
78411;BME280;67706;51.074;-1.796;2023-07-31T05:46:29;100191.00;;;17.46;100.00
78411;BME280;67706;51.074;-1.796;2023-07-31T05:48:56;100198.75;;;17.44;100.00
78411;BME280;67706;51.074;-1.796;2023-07-31T05:51:25;100188.44;;;17.40;100.00
78411;BME280;67706;51.074;-1.796;2023-07-31T05:53:51;100193.72;;;17.41;100.00
78411;BME280;67706;51.074;-1.796;2023-07-31T05:56:18;100182.94;;;17.45;100.00
78411;BME280;67706;51.074;-1.796;2023-07-31T05:58:46;100179.56;;;17.43;100.00
78411;BME280;67706;51.074;-1.796;2023-07-31T06:01:15;100177.06;;;17.41;100.00
78411;BME280;67706;51.074;-1.796;2023-07-31T06:03:42;100174.03;;;17.43;100.00
78411;BME280;67706;51.074;-1.796;2023-07-31T06:06:08;100189.91;;;17.47;100.00
78411;BME280;67706;51.074;-1.796;2023-07-31T06:08:35;100194.81;;;17.40;100.00
78411;BME280;67706;51.074;-1.796;2023-07-31T06:11:02;100190.09;;;17.41;100.00
78411;BME280;67706;51.074;-1.796;2023-07-31T06:13:29;100183.47;;;17.42;100.00
78411;BME280;67706;51.074;-1.796;2023-07-31T06:15:57;100171.53;;;17.41;100.00
78411;BME280;67706;51.074;-1.796;2023-07-31T06:18:24;100176.31;;;17.46;100.00
78411;BME280;67706;51.074;-1.796;2023-07-31T06:20:51;100168.31;;;17.50;100.00
78411;BME280;67706;51.074;-1.796;2023-07-31T06:23:19;100170.97;;;17.61;100.00
78411;BME280;67706;51.074;-1.796;2023-07-31T06:25:46;100165.09;;;17.58;100.00
78411;BME280;67706;51.074;-1.796;2023-07-31T06:28:12;100168.81;;;17.68;100.00
78411;BME280;67706;51.074;-1.796;2023-07-31T06:30:39;100169.94;;;17.67;100.00
78411;BME280;67706;51.074;-1.796;2023-07-31T06:33:07;100163.22;;;17.63;100.00
78411;BME280;67706;51.074;-1.796;2023-07-31T06:35:34;100176.81;;;17.65;100.00
78411;BME280;67706;51.074;-1.796;2023-07-31T06:38:01;100172.97;;;17.66;100.00
78411;BME280;67706;51.074;-1.796;2023-07-31T06:40:28;100171.38;;;17.75;100.00
78411;BME280;67706;51.074;-1.796;2023-07-31T06:42:54;100172.03;;;17.82;100.00
78411;BME280;67706;51.074;-1.796;2023-07-31T06:45:21;100168.78;;;17.90;100.00
78411;BME280;67706;51.074;-1.796;2023-07-31T06:47:48;100151.50;;;18.09;100.00
78411;BME280;67706;51.074;-1.796;2023-07-31T06:50:16;100151.88;;;18.23;100.00
78411;BME280;67706;51.074;-1.796;2023-07-31T06:52:43;100150.81;;;18.24;99.95
78411;BME280;67706;51.074;-1.796;2023-07-31T06:55:17;100146.63;;;18.26;99.52
78411;BME280;67706;51.074;-1.796;2023-07-31T06:57:44;100152.72;;;18.23;98.77
78411;BME280;67706;51.074;-1.796;2023-07-31T07:00:12;100144.69;;;18.22;99.26
78411;BME280;67706;51.074;-1.796;2023-07-31T07:02:39;100145.94;;;18.09;99.90
78411;BME280;67706;51.074;-1.796;2023-07-31T07:05:06;100145.19;;;18.19;99.97
78411;BME280;67706;51.074;-1.796;2023-07-31T07:07:34;100129.16;;;18.26;99.78
78411;BME280;67706;51.074;-1.796;2023-07-31T07:10:01;100133.28;;;18.23;99.12
78411;BME280;67706;51.074;-1.796;2023-07-31T07:12:30;100130.38;;;18.40;98.88
78411;BME280;67706;51.074;-1.796;2023-07-31T07:14:57;100121.34;;;18.55;98.15
78411;BME280;67706;51.074;-1.796;2023-07-31T07:17:23;100129.97;;;18.58;97.76
78411;BME280;67706;51.074;-1.796;2023-07-31T07:19:50;100127.28;;;18.68;97.12
78411;BME280;67706;51.074;-1.796;2023-07-31T07:22:17;100121.75;;;18.73;97.14
78411;BME280;67706;51.074;-1.796;2023-07-31T07:24:45;100122.06;;;18.82;95.74
78411;BME280;67706;51.074;-1.796;2023-07-31T07:27:12;100122.44;;;18.95;94.86
78411;BME280;67706;51.074;-1.796;2023-07-31T07:29:40;100114.66;;;18.97;95.95
78411;BME280;67706;51.074;-1.796;2023-07-31T07:32:07;100111.03;;;18.97;94.06
78411;BME280;67706;51.074;-1.796;2023-07-31T07:34:34;100117.44;;;18.97;95.25
78411;BME280;67706;51.074;-1.796;2023-07-31T07:37:01;100108.84;;;19.04;92.84
78411;BME280;67706;51.074;-1.796;2023-07-31T07:39:27;100114.97;;;19.01;92.64
78411;BME280;67706;51.074;-1.796;2023-07-31T07:41:55;100114.41;;;19.04;91.39
78411;BME280;67706;51.074;-1.796;2023-07-31T07:44:22;100118.53;;;18.96;91.34
78411;BME280;67706;51.074;-1.796;2023-07-31T07:46:48;100108.53;;;18.95;90.48
78411;BME280;67706;51.074;-1.796;2023-07-31T07:49:15;100113.03;;;19.07;89.71
78411;BME280;67706;51.074;-1.796;2023-07-31T07:51:42;100114.16;;;19.11;89.51
78411;BME280;67706;51.074;-1.796;2023-07-31T07:54:08;100111.44;;;19.21;89.16
78411;BME280;67706;51.074;-1.796;2023-07-31T07:56:35;100105.81;;;19.11;89.58
78411;BME280;67706;51.074;-1.796;2023-07-31T07:59:03;100106.13;;;19.19;88.97
78411;BME280;67706;51.074;-1.796;2023-07-31T08:01:30;100106.72;;;19.26;88.83
78411;BME280;67706;51.074;-1.796;2023-07-31T08:03:57;100092.09;;;19.51;87.58
78411;BME280;67706;51.074;-1.796;2023-07-31T08:06:24;100089.03;;;19.52;85.28
78411;BME280;67706;51.074;-1.796;2023-07-31T08:08:51;100086.81;;;19.59;85.53
78411;BME280;67706;51.074;-1.796;2023-07-31T08:11:17;100096.28;;;19.58;84.82
78411;BME280;67706;51.074;-1.796;2023-07-31T08:13:44;100088.22;;;19.62;85.04
78411;BME280;67706;51.074;-1.796;2023-07-31T08:16:12;100102.69;;;19.59;84.50
78411;BME280;67706;51.074;-1.796;2023-07-31T08:18:39;100093.22;;;19.55;83.15
78411;BME280;67706;51.074;-1.796;2023-07-31T08:21:08;100097.09;;;19.49;82.54
78411;BME280;67706;51.074;-1.796;2023-07-31T08:23:34;100099.34;;;19.57;81.06
78411;BME280;67706;51.074;-1.796;2023-07-31T08:26:01;100094.91;;;19.56;79.23
78411;BME280;67706;51.074;-1.796;2023-07-31T08:28:28;100109.91;;;19.55;77.41
78411;BME280;67706;51.074;-1.796;2023-07-31T08:30:54;100111.00;;;19.49;77.37
78411;BME280;67706;51.074;-1.796;2023-07-31T08:33:22;100103.78;;;19.48;77.54
78411;BME280;67706;51.074;-1.796;2023-07-31T08:35:49;100098.38;;;19.31;76.52
78411;BME280;67706;51.074;-1.796;2023-07-31T08:38:16;100099.56;;;19.35;78.06
78411;BME280;67706;51.074;-1.796;2023-07-31T08:40:42;100099.72;;;19.19;77.41
78411;BME280;67706;51.074;-1.796;2023-07-31T08:43:09;100092.53;;;19.23;77.29
78411;BME280;67706;51.074;-1.796;2023-07-31T08:45:36;100078.84;;;19.11;76.12
78411;BME280;67706;51.074;-1.796;2023-07-31T08:48:04;100099.16;;;19.12;75.71
78411;BME280;67706;51.074;-1.796;2023-07-31T08:50:32;100107.72;;;19.00;73.74
78411;BME280;67706;51.074;-1.796;2023-07-31T08:53:00;100110.75;;;18.98;73.10
78411;BME280;67706;51.074;-1.796;2023-07-31T08:55:27;100126.59;;;18.98;73.50
78411;BME280;67706;51.074;-1.796;2023-07-31T08:57:55;100130.22;;;18.98;72.02
78411;BME280;67706;51.074;-1.796;2023-07-31T09:00:23;100123.81;;;18.98;70.94
78411;BME280;67706;51.074;-1.796;2023-07-31T09:02:55;100113.53;;;18.98;71.20
78411;BME280;67706;51.074;-1.796;2023-07-31T09:05:23;100090.56;;;19.18;69.90
78411;BME280;67706;51.074;-1.796;2023-07-31T09:07:51;100088.94;;;19.32;70.68
78411;BME280;67706;51.074;-1.796;2023-07-31T09:10:18;100112.81;;;19.23;70.87
78411;BME280;67706;51.074;-1.796;2023-07-31T09:12:44;100110.34;;;19.32;71.76
78411;BME280;67706;51.074;-1.796;2023-07-31T09:15:12;100102.06;;;19.42;71.18
78411;BME280;67706;51.074;-1.796;2023-07-31T09:17:38;100080.38;;;19.44;70.42
78411;BME280;67706;51.074;-1.796;2023-07-31T09:20:13;100085.41;;;19.57;70.85
78411;BME280;67706;51.074;-1.796;2023-07-31T09:22:40;100097.41;;;19.57;70.39
78411;BME280;67706;51.074;-1.796;2023-07-31T09:25:16;100088.78;;;19.54;71.07
78411;BME280;67706;51.074;-1.796;2023-07-31T09:27:46;100069.03;;;19.60;71.50
78411;BME280;67706;51.074;-1.796;2023-07-31T09:30:14;100064.56;;;19.59;71.50
78411;BME280;67706;51.074;-1.796;2023-07-31T09:32:40;100073.75;;;19.50;71.67
78411;BME280;67706;51.074;-1.796;2023-07-31T09:35:14;100076.22;;;19.51;72.02
78411;BME280;67706;51.074;-1.796;2023-07-31T09:37:48;100085.72;;;19.60;72.54
78411;BME280;67706;51.074;-1.796;2023-07-31T09:40:26;100074.31;;;19.72;71.42
78411;BME280;67706;51.074;-1.796;2023-07-31T09:42:55;100086.00;;;19.54;71.97
78411;BME280;67706;51.074;-1.796;2023-07-31T09:45:22;100077.66;;;19.64;72.14
78411;BME280;67706;51.074;-1.796;2023-07-31T09:47:49;100068.72;;;19.57;72.03
78411;BME280;67706;51.074;-1.796;2023-07-31T09:50:16;100085.16;;;19.53;73.09
78411;BME280;67706;51.074;-1.796;2023-07-31T09:52:43;100111.00;;;19.49;74.05
78411;BME280;67706;51.074;-1.796;2023-07-31T09:55:09;100104.34;;;19.50;74.11
78411;BME280;67706;51.074;-1.796;2023-07-31T09:57:39;100100.13;;;19.37;72.80
78411;BME280;67706;51.074;-1.796;2023-07-31T10:00:07;100095.84;;;19.20;74.23
78411;BME280;67706;51.074;-1.796;2023-07-31T10:02:36;100110.00;;;19.13;74.11
78411;BME280;67706;51.074;-1.796;2023-07-31T10:05:04;100111.97;;;19.18;75.23
78411;BME280;67706;51.074;-1.796;2023-07-31T10:07:37;100088.56;;;19.09;74.70
78411;BME280;67706;51.074;-1.796;2023-07-31T10:10:07;100078.28;;;19.09;75.68
78411;BME280;67706;51.074;-1.796;2023-07-31T10:12:34;100093.59;;;19.12;76.22
78411;BME280;67706;51.074;-1.796;2023-07-31T10:15:04;100073.25;;;19.06;77.54
78411;BME280;67706;51.074;-1.796;2023-07-31T10:17:31;100073.84;;;19.13;76.64
78411;BME280;67706;51.074;-1.796;2023-07-31T10:20:00;100069.34;;;18.97;77.31
78411;BME280;67706;51.074;-1.796;2023-07-31T10:22:30;100104.03;;;18.84;76.50
78411;BME280;67706;51.074;-1.796;2023-07-31T10:24:58;100124.00;;;18.76;77.08
78411;BME280;67706;51.074;-1.796;2023-07-31T10:27:25;100137.22;;;18.64;77.76
78411;BME280;67706;51.074;-1.796;2023-07-31T10:29:55;100147.47;;;18.59;78.46
78411;BME280;67706;51.074;-1.796;2023-07-31T10:32:24;100143.97;;;18.68;77.55
78411;BME280;67706;51.074;-1.796;2023-07-31T10:34:52;100140.84;;;18.65;77.66
78411;BME280;67706;51.074;-1.796;2023-07-31T10:37:26;100144.09;;;18.93;78.45
78411;BME280;67706;51.074;-1.796;2023-07-31T10:39:59;100141.25;;;18.83;76.27
78411;BME280;67706;51.074;-1.796;2023-07-31T10:42:30;100131.59;;;18.91;75.02
78411;BME280;67706;51.074;-1.796;2023-07-31T10:44:59;100147.13;;;18.87;75.74
78411;BME280;67706;51.074;-1.796;2023-07-31T10:47:27;100137.97;;;18.91;75.62
78411;BME280;67706;51.074;-1.796;2023-07-31T10:50:12;100130.44;;;18.87;74.07
78411;BME280;67706;51.074;-1.796;2023-07-31T10:52:39;100117.94;;;18.84;74.55
78411;BME280;67706;51.074;-1.796;2023-07-31T10:55:29;100119.88;;;18.84;73.76
78411;BME280;67706;51.074;-1.796;2023-07-31T10:57:57;100129.03;;;18.84;74.19
78411;BME280;67706;51.074;-1.796;2023-07-31T11:00:26;100127.03;;;18.75;73.92
78411;BME280;67706;51.074;-1.796;2023-07-31T11:02:59;100122.34;;;18.80;73.48
78411;BME280;67706;51.074;-1.796;2023-07-31T11:05:48;100136.72;;;18.67;71.96
78411;BME280;67706;51.074;-1.796;2023-07-31T11:08:17;100135.69;;;18.78;72.72
78411;BME280;67706;51.074;-1.796;2023-07-31T11:10:46;100140.13;;;18.79;72.75
78411;BME280;67706;51.074;-1.796;2023-07-31T11:13:13;100154.50;;;18.71;72.38
78411;BME280;67706;51.074;-1.796;2023-07-31T11:15:39;100144.53;;;18.75;73.14
78411;BME280;67706;51.074;-1.796;2023-07-31T11:18:08;100132.00;;;18.73;73.48
78411;BME280;67706;51.074;-1.796;2023-07-31T11:20:36;100118.44;;;18.81;73.26
78411;BME280;67706;51.074;-1.796;2023-07-31T11:23:06;100115.16;;;18.84;73.48
78411;BME280;67706;51.074;-1.796;2023-07-31T11:25:33;100109.59;;;18.89;73.54
78411;BME280;67706;51.074;-1.796;2023-07-31T11:28:04;100111.25;;;18.85;73.71
78411;BME280;67706;51.074;-1.796;2023-07-31T11:30:31;100115.16;;;18.84;74.61
78411;BME280;67706;51.074;-1.796;2023-07-31T11:32:59;100112.59;;;18.78;73.92
78411;BME280;67706;51.074;-1.796;2023-07-31T11:35:27;100107.84;;;18.73;73.83
78411;BME280;67706;51.074;-1.796;2023-07-31T11:37:53;100108.63;;;18.64;73.36
78411;BME280;67706;51.074;-1.796;2023-07-31T11:40:20;100115.78;;;18.55;74.30
78411;BME280;67706;51.074;-1.796;2023-07-31T11:42:47;100102.19;;;18.53;74.65
78411;BME280;67706;51.074;-1.796;2023-07-31T11:45:14;100093.13;;;18.36;74.79
78411;BME280;67706;51.074;-1.796;2023-07-31T11:47:40;100087.50;;;18.26;77.86
78411;BME280;67706;51.074;-1.796;2023-07-31T11:50:11;100098.56;;;18.21;77.95
78411;BME280;67706;51.074;-1.796;2023-07-31T11:52:44;100090.81;;;18.23;78.85
78411;BME280;67706;51.074;-1.796;2023-07-31T11:55:12;100085.81;;;18.20;77.52
78411;BME280;67706;51.074;-1.796;2023-07-31T11:57:41;100076.56;;;18.14;75.71
78411;BME280;67706;51.074;-1.796;2023-07-31T12:00:11;100074.50;;;18.00;76.93
78411;BME280;67706;51.074;-1.796;2023-07-31T12:02:39;100083.97;;;17.99;77.28
78411;BME280;67706;51.074;-1.796;2023-07-31T12:05:10;100071.72;;;17.95;78.75
78411;BME280;67706;51.074;-1.796;2023-07-31T12:07:46;100065.25;;;17.89;77.78
78411;BME280;67706;51.074;-1.796;2023-07-31T12:10:27;100050.31;;;17.90;79.54
78411;BME280;67706;51.074;-1.796;2023-07-31T12:13:02;100035.00;;;17.88;78.05
78411;BME280;67706;51.074;-1.796;2023-07-31T12:15:37;100038.31;;;17.85;79.61
78411;BME280;67706;51.074;-1.796;2023-07-31T12:18:05;100041.66;;;17.87;81.81
78411;BME280;67706;51.074;-1.796;2023-07-31T12:20:33;100046.16;;;17.93;81.24
78411;BME280;67706;51.074;-1.796;2023-07-31T12:23:01;100040.63;;;17.98;81.47
78411;BME280;67706;51.074;-1.796;2023-07-31T12:25:29;100040.69;;;18.03;83.55
78411;BME280;67706;51.074;-1.796;2023-07-31T12:27:56;100044.06;;;18.10;81.93
78411;BME280;67706;51.074;-1.796;2023-07-31T12:30:26;100052.94;;;18.07;80.00
78411;BME280;67706;51.074;-1.796;2023-07-31T12:32:54;100060.34;;;17.96;80.72
78411;BME280;67706;51.074;-1.796;2023-07-31T12:35:20;100058.84;;;17.84;81.84
78411;BME280;67706;51.074;-1.796;2023-07-31T12:37:47;100055.19;;;17.78;83.35
78411;BME280;67706;51.074;-1.796;2023-07-31T12:40:15;100044.88;;;17.74;82.97